sensor_id;sensor_type;location;lat;lon;timestamp;P1;durP1;ratioP1;P2;durP2;ratioP2
15183;SDS011;7693;49.266;7.104;2022-07-04T05:06:24;12.02;;;10.63;;
15183;SDS011;7693;49.266;7.104;2022-07-04T05:08:49;15.27;;;13.80;;
15183;SDS011;7693;49.266;7.104;2022-07-04T05:11:15;15.05;;;13.50;;
15183;SDS011;7693;49.266;7.104;2022-07-04T05:13:40;16.63;;;13.00;;
15183;SDS011;7693;49.266;7.104;2022-07-04T05:16:06;16.45;;;14.75;;
15183;SDS011;7693;49.266;7.104;2022-07-04T05:18:32;20.30;;;17.80;;
15183;SDS011;7693;49.266;7.104;2022-07-04T05:20:58;20.55;;;18.30;;
15183;SDS011;7693;49.266;7.104;2022-07-04T05:23:24;21.65;;;19.40;;
15183;SDS011;7693;49.266;7.104;2022-07-04T05:25:49;18.48;;;16.55;;
15183;SDS011;7693;49.266;7.104;2022-07-04T05:28:15;18.92;;;16.23;;
15183;SDS011;7693;49.266;7.104;2022-07-04T05:30:41;17.50;;;15.80;;
15183;SDS011;7693;49.266;7.104;2022-07-04T05:33:07;18.90;;;14.57;;
15183;SDS011;7693;49.266;7.104;2022-07-04T05:35:33;16.52;;;14.55;;
15183;SDS011;7693;49.266;7.104;2022-07-04T05:37:59;23.23;;;20.73;;
15183;SDS011;7693;49.266;7.104;2022-07-04T05:40:24;15.43;;;12.73;;
15183;SDS011;7693;49.266;7.104;2022-07-04T05:42:50;13.75;;;12.35;;
15183;SDS011;7693;49.266;7.104;2022-07-04T05:45:15;14.43;;;12.48;;
15183;SDS011;7693;49.266;7.104;2022-07-04T05:47:41;10.10;;;9.05;;
15183;SDS011;7693;49.266;7.104;2022-07-04T05:50:07;10.55;;;9.55;;
15183;SDS011;7693;49.266;7.104;2022-07-04T05:52:34;6.72;;;6.10;;
15183;SDS011;7693;49.266;7.104;2022-07-04T05:55:00;6.85;;;6.18;;
15183;SDS011;7693;49.266;7.104;2022-07-04T05:57:25;4.68;;;3.08;;
15183;SDS011;7693;49.266;7.104;2022-07-04T05:59:52;3.63;;;3.33;;
15183;SDS011;7693;49.266;7.104;2022-07-04T06:02:18;3.20;;;3.00;;
15183;SDS011;7693;49.266;7.104;2022-07-04T06:04:43;3.15;;;2.50;;
15183;SDS011;7693;49.266;7.104;2022-07-04T06:07:09;3.60;;;2.80;;
15183;SDS011;7693;49.266;7.104;2022-07-04T06:09:35;2.80;;;2.60;;
15183;SDS011;7693;49.266;7.104;2022-07-04T06:12:01;3.05;;;2.85;;
15183;SDS011;7693;49.266;7.104;2022-07-04T06:14:27;3.67;;;2.30;;
15183;SDS011;7693;49.266;7.104;2022-07-04T06:16:52;2.63;;;2.53;;
15183;SDS011;7693;49.266;7.104;2022-07-04T06:19:18;2.90;;;2.70;;
15183;SDS011;7693;49.266;7.104;2022-07-04T06:21:43;2.70;;;2.50;;
15183;SDS011;7693;49.266;7.104;2022-07-04T06:24:09;2.20;;;2.03;;
15183;SDS011;7693;49.266;7.104;2022-07-04T06:26:35;2.70;;;2.50;;
15183;SDS011;7693;49.266;7.104;2022-07-04T06:29:00;4.10;;;2.40;;
15183;SDS011;7693;49.266;7.104;2022-07-04T06:31:26;5.53;;;2.63;;
15183;SDS011;7693;49.266;7.104;2022-07-04T06:33:51;7.97;;;2.45;;
15183;SDS011;7693;49.266;7.104;2022-07-04T06:36:46;3.20;;;2.42;;
15183;SDS011;7693;49.266;7.104;2022-07-04T06:39:12;2.95;;;2.70;;
15183;SDS011;7693;49.266;7.104;2022-07-04T06:41:37;3.35;;;2.45;;
15183;SDS011;7693;49.266;7.104;2022-07-04T06:44:03;6.25;;;2.47;;
15183;SDS011;7693;49.266;7.104;2022-07-04T06:46:29;2.50;;;2.30;;
15183;SDS011;7693;49.266;7.104;2022-07-04T06:48:55;4.05;;;2.17;;
15183;SDS011;7693;49.266;7.104;2022-07-04T06:51:21;5.50;;;2.30;;
15183;SDS011;7693;49.266;7.104;2022-07-04T06:53:47;4.35;;;2.55;;
15183;SDS011;7693;49.266;7.104;2022-07-04T06:56:13;2.40;;;2.10;;
15183;SDS011;7693;49.266;7.104;2022-07-04T06:58:39;3.70;;;2.20;;
15183;SDS011;7693;49.266;7.104;2022-07-04T07:01:04;6.93;;;2.30;;
15183;SDS011;7693;49.266;7.104;2022-07-04T07:03:30;3.40;;;2.15;;
15183;SDS011;7693;49.266;7.104;2022-07-04T07:05:56;8.57;;;2.00;;
15183;SDS011;7693;49.266;7.104;2022-07-04T07:08:22;3.47;;;2.00;;
15183;SDS011;7693;49.266;7.104;2022-07-04T07:10:48;6.20;;;2.10;;
15183;SDS011;7693;49.266;7.104;2022-07-04T07:13:13;2.45;;;1.92;;
15183;SDS011;7693;49.266;7.104;2022-07-04T07:15:39;2.80;;;2.28;;
15183;SDS011;7693;49.266;7.104;2022-07-04T07:18:05;2.30;;;2.17;;
15183;SDS011;7693;49.266;7.104;2022-07-04T07:20:31;3.97;;;2.10;;
15183;SDS011;7693;49.266;7.104;2022-07-04T07:22:57;3.88;;;2.05;;
15183;SDS011;7693;49.266;7.104;2022-07-04T07:25:23;5.03;;;2.13;;
15183;SDS011;7693;49.266;7.104;2022-07-04T07:27:49;5.30;;;2.22;;
15183;SDS011;7693;49.266;7.104;2022-07-04T07:30:14;1.90;;;1.80;;
15183;SDS011;7693;49.266;7.104;2022-07-04T07:32:40;4.78;;;1.95;;
15183;SDS011;7693;49.266;7.104;2022-07-04T07:35:06;2.45;;;1.92;;
15183;SDS011;7693;49.266;7.104;2022-07-04T07:37:31;4.75;;;3.25;;
15183;SDS011;7693;49.266;7.104;2022-07-04T07:39:57;2.75;;;1.90;;
15183;SDS011;7693;49.266;7.104;2022-07-04T07:42:23;2.97;;;2.15;;
15183;SDS011;7693;49.266;7.104;2022-07-04T07:44:50;2.00;;;1.80;;
15183;SDS011;7693;49.266;7.104;2022-07-04T07:47:16;1.90;;;1.80;;
15183;SDS011;7693;49.266;7.104;2022-07-04T07:49:42;2.25;;;1.77;;
15183;SDS011;7693;49.266;7.104;2022-07-04T07:52:07;2.72;;;1.88;;
15183;SDS011;7693;49.266;7.104;2022-07-04T07:54:33;2.97;;;1.88;;
15183;SDS011;7693;49.266;7.104;2022-07-04T07:56:59;2.08;;;1.77;;
15183;SDS011;7693;49.266;7.104;2022-07-04T07:59:25;2.05;;;1.90;;
15183;SDS011;7693;49.266;7.104;2022-07-04T08:01:50;4.40;;;1.87;;
15183;SDS011;7693;49.266;7.104;2022-07-04T08:04:16;3.20;;;1.90;;
15183;SDS011;7693;49.266;7.104;2022-07-04T08:07:10;1.65;;;1.55;;
15183;SDS011;7693;49.266;7.104;2022-07-04T08:09:39;1.92;;;1.80;;
15183;SDS011;7693;49.266;7.104;2022-07-04T08:12:05;6.70;;;1.75;;
15183;SDS011;7693;49.266;7.104;2022-07-04T08:14:33;2.63;;;1.75;;
15183;SDS011;7693;49.266;7.104;2022-07-04T08:16:59;3.03;;;1.80;;
15183;SDS011;7693;49.266;7.104;2022-07-04T08:19:25;2.45;;;1.75;;
15183;SDS011;7693;49.266;7.104;2022-07-04T08:21:51;3.08;;;1.73;;
15183;SDS011;7693;49.266;7.104;2022-07-04T08:24:17;2.10;;;1.60;;
15183;SDS011;7693;49.266;7.104;2022-07-04T08:26:43;1.83;;;1.48;;
15183;SDS011;7693;49.266;7.104;2022-07-04T08:29:10;2.22;;;1.80;;
15183;SDS011;7693;49.266;7.104;2022-07-04T08:31:42;2.70;;;1.88;;
15183;SDS011;7693;49.266;7.104;2022-07-04T08:34:08;3.53;;;1.60;;
15183;SDS011;7693;49.266;7.104;2022-07-04T08:36:34;2.05;;;1.80;;
15183;SDS011;7693;49.266;7.104;2022-07-04T08:38:59;2.95;;;1.45;;
15183;SDS011;7693;49.266;7.104;2022-07-04T08:41:25;3.45;;;1.30;;
15183;SDS011;7693;49.266;7.104;2022-07-04T08:43:53;2.03;;;1.52;;
15183;SDS011;7693;49.266;7.104;2022-07-04T08:46:20;1.40;;;1.30;;
15183;SDS011;7693;49.266;7.104;2022-07-04T08:48:52;2.65;;;1.38;;
15183;SDS011;7693;49.266;7.104;2022-07-04T08:51:25;2.20;;;1.50;;
15183;SDS011;7693;49.266;7.104;2022-07-04T08:54:08;2.20;;;1.40;;
15183;SDS011;7693;49.266;7.104;2022-07-04T08:56:53;1.50;;;1.40;;
15183;SDS011;7693;49.266;7.104;2022-07-04T08:59:39;3.33;;;1.60;;
15183;SDS011;7693;49.266;7.104;2022-07-04T09:02:05;1.70;;;1.20;;
15183;SDS011;7693;49.266;7.104;2022-07-04T09:04:31;1.70;;;1.60;;
15183;SDS011;7693;49.266;7.104;2022-07-04T09:06:57;1.52;;;1.52;;
15183;SDS011;7693;49.266;7.104;2022-07-04T09:09:23;1.35;;;1.30;;
15183;SDS011;7693;49.266;7.104;2022-07-04T09:11:50;4.70;;;1.65;;
15183;SDS011;7693;49.266;7.104;2022-07-04T09:14:16;1.42;;;1.30;;
15183;SDS011;7693;49.266;7.104;2022-07-04T09:16:42;1.50;;;1.50;;
15183;SDS011;7693;49.266;7.104;2022-07-04T09:19:18;1.52;;;1.42;;
15183;SDS011;7693;49.266;7.104;2022-07-04T09:21:46;1.60;;;1.50;;
15183;SDS011;7693;49.266;7.104;2022-07-04T09:24:12;1.45;;;1.35;;
15183;SDS011;7693;49.266;7.104;2022-07-04T09:26:45;1.23;;;1.08;;
15183;SDS011;7693;49.266;7.104;2022-07-04T09:29:12;1.80;;;1.30;;
15183;SDS011;7693;49.266;7.104;2022-07-04T09:31:38;3.35;;;1.20;;
15183;SDS011;7693;49.266;7.104;2022-07-04T09:34:05;1.48;;;1.20;;
15183;SDS011;7693;49.266;7.104;2022-07-04T09:36:32;1.35;;;1.25;;
15183;SDS011;7693;49.266;7.104;2022-07-04T09:39:07;1.73;;;1.50;;
15183;SDS011;7693;49.266;7.104;2022-07-04T09:44:18;1.10;;;1.10;;
15183;SDS011;7693;49.266;7.104;2022-07-04T09:46:43;1.25;;;1.10;;
15183;SDS011;7693;49.266;7.104;2022-07-04T09:49:12;1.25;;;1.08;;
15183;SDS011;7693;49.266;7.104;2022-07-04T09:54:15;1.00;;;1.00;;
15183;SDS011;7693;49.266;7.104;2022-07-04T09:56:47;1.27;;;1.17;;
15183;SDS011;7693;49.266;7.104;2022-07-04T09:59:14;1.15;;;1.10;;
15183;SDS011;7693;49.266;7.104;2022-07-04T10:01:40;1.92;;;1.00;;
15183;SDS011;7693;49.266;7.104;2022-07-04T10:04:06;2.03;;;1.30;;
15183;SDS011;7693;49.266;7.104;2022-07-04T10:06:34;2.10;;;1.60;;
15183;SDS011;7693;49.266;7.104;2022-07-04T10:11:42;2.42;;;1.40;;
15183;SDS011;7693;49.266;7.104;2022-07-04T10:14:10;1.63;;;1.17;;
15183;SDS011;7693;49.266;7.104;2022-07-04T10:16:37;1.95;;;1.60;;
15183;SDS011;7693;49.266;7.104;2022-07-04T10:19:04;2.67;;;1.27;;
15183;SDS011;7693;49.266;7.104;2022-07-04T10:21:31;2.47;;;1.20;;
15183;SDS011;7693;49.266;7.104;2022-07-04T10:23:57;3.63;;;1.70;;
15183;SDS011;7693;49.266;7.104;2022-07-04T10:26:24;2.65;;;1.15;;
15183;SDS011;7693;49.266;7.104;2022-07-04T10:28:50;1.45;;;1.35;;
15183;SDS011;7693;49.266;7.104;2022-07-04T10:31:17;1.40;;;1.30;;
15183;SDS011;7693;49.266;7.104;2022-07-04T10:33:45;1.95;;;1.27;;
15183;SDS011;7693;49.266;7.104;2022-07-04T10:36:15;7.32;;;1.63;;
15183;SDS011;7693;49.266;7.104;2022-07-04T10:38:49;2.40;;;1.38;;
15183;SDS011;7693;49.266;7.104;2022-07-04T10:41:17;3.58;;;1.27;;
15183;SDS011;7693;49.266;7.104;2022-07-04T10:49:05;4.32;;;1.30;;
15183;SDS011;7693;49.266;7.104;2022-07-04T10:51:44;1.33;;;1.27;;
15183;SDS011;7693;49.266;7.104;2022-07-04T10:59:38;3.33;;;1.50;;
15183;SDS011;7693;49.266;7.104;2022-07-04T11:13:22;1.23;;;1.13;;
15183;SDS011;7693;49.266;7.104;2022-07-04T11:17:56;1.30;;;1.20;;
15183;SDS011;7693;49.266;7.104;2022-07-04T11:20:22;1.70;;;1.52;;
15183;SDS011;7693;49.266;7.104;2022-07-04T11:22:49;1.70;;;1.25;;
15183;SDS011;7693;49.266;7.104;2022-07-04T11:25:15;1.33;;;1.20;;
15183;SDS011;7693;49.266;7.104;2022-07-04T11:27:41;1.25;;;1.15;;
15183;SDS011;7693;49.266;7.104;2022-07-04T11:30:07;3.45;;;1.20;;
15183;SDS011;7693;49.266;7.104;2022-07-04T11:32:35;1.10;;;0.98;;
15183;SDS011;7693;49.266;7.104;2022-07-04T11:35:03;1.15;;;1.08;;
15183;SDS011;7693;49.266;7.104;2022-07-04T11:37:30;1.30;;;1.20;;
15183;SDS011;7693;49.266;7.104;2022-07-04T11:39:56;1.30;;;1.20;;
15183;SDS011;7693;49.266;7.104;2022-07-04T11:45:48;1.27;;;1.17;;
15183;SDS011;7693;49.266;7.104;2022-07-04T11:48:23;1.45;;;1.23;;
15183;SDS011;7693;49.266;7.104;2022-07-04T11:50:50;1.13;;;1.02;;
15183;SDS011;7693;49.266;7.104;2022-07-04T11:53:16;2.00;;;1.35;;
15183;SDS011;7693;49.266;7.104;2022-07-04T11:55:52;3.72;;;1.40;;
15183;SDS011;7693;49.266;7.104;2022-07-04T11:58:18;5.97;;;1.80;;
15183;SDS011;7693;49.266;7.104;2022-07-04T12:00:44;2.75;;;1.40;;
15183;SDS011;7693;49.266;7.104;2022-07-04T12:03:09;2.85;;;1.60;;
15183;SDS011;7693;49.266;7.104;2022-07-04T12:05:35;2.50;;;1.30;;
15183;SDS011;7693;49.266;7.104;2022-07-04T12:08:03;2.78;;;1.27;;
15183;SDS011;7693;49.266;7.104;2022-07-04T12:10:30;2.13;;;1.58;;
15183;SDS011;7693;49.266;7.104;2022-07-04T12:15:25;1.60;;;1.50;;
15183;SDS011;7693;49.266;7.104;2022-07-04T12:18:01;1.60;;;1.50;;
15183;SDS011;7693;49.266;7.104;2022-07-04T12:20:27;1.75;;;1.30;;
15183;SDS011;7693;49.266;7.104;2022-07-04T12:22:54;4.72;;;1.42;;
15183;SDS011;7693;49.266;7.104;2022-07-04T12:25:22;1.92;;;1.40;;
15183;SDS011;7693;49.266;7.104;2022-07-04T12:28:01;3.83;;;1.50;;
15183;SDS011;7693;49.266;7.104;2022-07-04T12:30:35;2.40;;;1.52;;
15183;SDS011;7693;49.266;7.104;2022-07-04T12:33:02;2.95;;;1.55;;
15183;SDS011;7693;49.266;7.104;2022-07-04T12:38:05;2.00;;;1.35;;
15183;SDS011;7693;49.266;7.104;2022-07-04T12:48:50;1.30;;;1.30;;
15183;SDS011;7693;49.266;7.104;2022-07-04T12:51:18;1.33;;;1.10;;
15183;SDS011;7693;49.266;7.104;2022-07-04T12:53:45;2.60;;;1.20;;
15183;SDS011;7693;49.266;7.104;2022-07-04T12:58:57;1.13;;;1.13;;
15183;SDS011;7693;49.266;7.104;2022-07-04T13:01:23;1.20;;;1.20;;
15183;SDS011;7693;49.266;7.104;2022-07-04T13:03:49;2.90;;;2.42;;
15183;SDS011;7693;49.266;7.104;2022-07-04T13:06:15;3.17;;;1.30;;
15183;SDS011;7693;49.266;7.104;2022-07-04T13:08:40;1.98;;;1.27;;
15183;SDS011;7693;49.266;7.104;2022-07-04T13:11:06;1.98;;;1.02;;
15183;SDS011;7693;49.266;7.104;2022-07-04T13:13:50;1.40;;;1.30;;
15183;SDS011;7693;49.266;7.104;2022-07-04T13:16:15;1.33;;;1.20;;
15183;SDS011;7693;49.266;7.104;2022-07-04T13:18:41;5.25;;;1.17;;
15183;SDS011;7693;49.266;7.104;2022-07-04T13:21:07;1.35;;;1.30;;
15183;SDS011;7693;49.266;7.104;2022-07-04T13:23:32;3.97;;;1.20;;
15183;SDS011;7693;49.266;7.104;2022-07-04T13:25:58;1.00;;;0.93;;
15183;SDS011;7693;49.266;7.104;2022-07-04T13:28:24;1.55;;;1.45;;
15183;SDS011;7693;49.266;7.104;2022-07-04T13:30:49;1.50;;;1.15;;
15183;SDS011;7693;49.266;7.104;2022-07-04T13:33:15;0.93;;;0.93;;
15183;SDS011;7693;49.266;7.104;2022-07-04T13:35:40;1.20;;;1.10;;
15183;SDS011;7693;49.266;7.104;2022-07-04T13:38:06;1.35;;;1.30;;
15183;SDS011;7693;49.266;7.104;2022-07-04T13:40:32;3.70;;;1.17;;
15183;SDS011;7693;49.266;7.104;2022-07-04T13:42:58;1.60;;;1.50;;
15183;SDS011;7693;49.266;7.104;2022-07-04T13:45:24;1.27;;;1.20;;
15183;SDS011;7693;49.266;7.104;2022-07-04T13:47:50;1.25;;;1.20;;
15183;SDS011;7693;49.266;7.104;2022-07-04T13:50:16;1.90;;;1.33;;
15183;SDS011;7693;49.266;7.104;2022-07-04T13:52:42;2.72;;;1.23;;
15183;SDS011;7693;49.266;7.104;2022-07-04T13:55:08;1.20;;;1.08;;
15183;SDS011;7693;49.266;7.104;2022-07-04T13:57:34;1.80;;;1.35;;
15183;SDS011;7693;49.266;7.104;2022-07-04T14:00:01;1.27;;;1.05;;
15183;SDS011;7693;49.266;7.104;2022-07-04T14:02:30;1.27;;;1.20;;
15183;SDS011;7693;49.266;7.104;2022-07-04T14:04:56;1.95;;;1.20;;
15183;SDS011;7693;49.266;7.104;2022-07-04T14:07:22;0.98;;;0.98;;
15183;SDS011;7693;49.266;7.104;2022-07-04T14:09:47;2.38;;;1.23;;
15183;SDS011;7693;49.266;7.104;2022-07-04T14:12:13;2.92;;;1.08;;
15183;SDS011;7693;49.266;7.104;2022-07-04T14:14:42;3.05;;;1.10;;
15183;SDS011;7693;49.266;7.104;2022-07-04T14:17:08;1.73;;;1.00;;
15183;SDS011;7693;49.266;7.104;2022-07-04T14:19:34;4.18;;;1.10;;
15183;SDS011;7693;49.266;7.104;2022-07-04T14:22:00;3.35;;;0.90;;
15183;SDS011;7693;49.266;7.104;2022-07-04T14:24:25;7.30;;;1.30;;
15183;SDS011;7693;49.266;7.104;2022-07-04T14:26:52;4.43;;;1.10;;
15183;SDS011;7693;49.266;7.104;2022-07-04T14:29:18;1.23;;;1.13;;
15183;SDS011;7693;49.266;7.104;2022-07-04T14:31:44;3.40;;;1.33;;
15183;SDS011;7693;49.266;7.104;2022-07-04T14:34:09;1.20;;;1.10;;
15183;SDS011;7693;49.266;7.104;2022-07-04T14:36:37;2.05;;;1.00;;
15183;SDS011;7693;49.266;7.104;2022-07-04T14:39:03;2.53;;;1.20;;
15183;SDS011;7693;49.266;7.104;2022-07-04T14:41:29;3.20;;;1.17;;
15183;SDS011;7693;49.266;7.104;2022-07-04T14:43:56;2.47;;;1.20;;
15183;SDS011;7693;49.266;7.104;2022-07-04T14:46:21;1.65;;;1.00;;
15183;SDS011;7693;49.266;7.104;2022-07-04T14:48:47;0.98;;;0.90;;
15183;SDS011;7693;49.266;7.104;2022-07-04T14:51:13;0.90;;;0.82;;
15183;SDS011;7693;49.266;7.104;2022-07-04T14:53:38;4.15;;;1.20;;
15183;SDS011;7693;49.266;7.104;2022-07-04T14:56:04;4.22;;;1.13;;
15183;SDS011;7693;49.266;7.104;2022-07-04T14:58:30;1.65;;;1.08;;
15183;SDS011;7693;49.266;7.104;2022-07-04T15:00:56;1.85;;;0.82;;
15183;SDS011;7693;49.266;7.104;2022-07-04T15:03:21;2.97;;;0.95;;
15183;SDS011;7693;49.266;7.104;2022-07-04T15:05:47;1.27;;;0.80;;
15183;SDS011;7693;49.266;7.104;2022-07-04T15:08:13;3.17;;;0.90;;
15183;SDS011;7693;49.266;7.104;2022-07-04T15:10:39;2.55;;;0.90;;
15183;SDS011;7693;49.266;7.104;2022-07-04T15:13:05;2.08;;;1.10;;
15183;SDS011;7693;49.266;7.104;2022-07-04T15:15:30;1.23;;;0.88;;
15183;SDS011;7693;49.266;7.104;2022-07-04T15:17:56;3.95;;;1.00;;
15183;SDS011;7693;49.266;7.104;2022-07-04T15:20:21;1.23;;;1.00;;
15183;SDS011;7693;49.266;7.104;2022-07-04T15:23:06;1.13;;;1.00;;
15183;SDS011;7693;49.266;7.104;2022-07-04T15:25:50;1.45;;;0.80;;
15183;SDS011;7693;49.266;7.104;2022-07-04T15:28:15;1.10;;;1.10;;
15183;SDS011;7693;49.266;7.104;2022-07-04T15:30:41;3.78;;;1.10;;
15183;SDS011;7693;49.266;7.104;2022-07-04T15:33:06;5.40;;;1.00;;
15183;SDS011;7693;49.266;7.104;2022-07-04T15:35:36;1.45;;;0.73;;
15183;SDS011;7693;49.266;7.104;2022-07-04T15:38:02;1.15;;;0.80;;
15183;SDS011;7693;49.266;7.104;2022-07-04T15:40:27;2.80;;;0.90;;
15183;SDS011;7693;49.266;7.104;2022-07-04T15:42:53;3.42;;;1.25;;
15183;SDS011;7693;49.266;7.104;2022-07-04T15:45:18;1.15;;;0.90;;
15183;SDS011;7693;49.266;7.104;2022-07-04T15:47:44;0.80;;;0.70;;
15183;SDS011;7693;49.266;7.104;2022-07-04T15:50:10;0.95;;;0.95;;
15183;SDS011;7693;49.266;7.104;2022-07-04T15:52:35;1.27;;;1.00;;
15183;SDS011;7693;49.266;7.104;2022-07-04T15:55:01;3.20;;;1.10;;
15183;SDS011;7693;49.266;7.104;2022-07-04T15:57:27;4.55;;;1.20;;
15183;SDS011;7693;49.266;7.104;2022-07-04T15:59:52;1.25;;;0.90;;
15183;SDS011;7693;49.266;7.104;2022-07-04T16:02:18;0.80;;;0.80;;
15183;SDS011;7693;49.266;7.104;2022-07-04T16:04:43;1.63;;;1.10;;
15183;SDS011;7693;49.266;7.104;2022-07-04T16:07:09;2.42;;;1.13;;
15183;SDS011;7693;49.266;7.104;2022-07-04T16:09:35;0.90;;;0.90;;
15183;SDS011;7693;49.266;7.104;2022-07-04T16:12:00;0.93;;;0.80;;
15183;SDS011;7693;49.266;7.104;2022-07-04T16:14:26;1.00;;;0.90;;
15183;SDS011;7693;49.266;7.104;2022-07-04T16:16:51;2.05;;;0.82;;
15183;SDS011;7693;49.266;7.104;2022-07-04T16:19:17;1.27;;;0.90;;
15183;SDS011;7693;49.266;7.104;2022-07-04T16:21:43;0.88;;;0.80;;
15183;SDS011;7693;49.266;7.104;2022-07-04T16:24:08;0.93;;;0.93;;
15183;SDS011;7693;49.266;7.104;2022-07-04T16:26:34;5.05;;;1.17;;
15183;SDS011;7693;49.266;7.104;2022-07-04T16:29:01;1.33;;;1.10;;
15183;SDS011;7693;49.266;7.104;2022-07-04T16:31:27;1.25;;;1.17;;
15183;SDS011;7693;49.266;7.104;2022-07-04T16:33:53;1.50;;;1.00;;
15183;SDS011;7693;49.266;7.104;2022-07-04T16:36:18;1.17;;;0.90;;
15183;SDS011;7693;49.266;7.104;2022-07-04T16:38:44;5.00;;;1.10;;
15183;SDS011;7693;49.266;7.104;2022-07-04T16:41:10;4.78;;;1.00;;
15183;SDS011;7693;49.266;7.104;2022-07-04T16:43:35;4.03;;;1.40;;
15183;SDS011;7693;49.266;7.104;2022-07-04T16:46:04;2.25;;;1.30;;
15183;SDS011;7693;49.266;7.104;2022-07-04T16:48:29;2.15;;;1.17;;
15183;SDS011;7693;49.266;7.104;2022-07-04T16:50:55;1.02;;;1.00;;
15183;SDS011;7693;49.266;7.104;2022-07-04T16:53:21;1.23;;;1.08;;
15183;SDS011;7693;49.266;7.104;2022-07-04T16:55:46;1.13;;;1.13;;
15183;SDS011;7693;49.266;7.104;2022-07-04T16:58:12;2.83;;;0.93;;
15183;SDS011;7693;49.266;7.104;2022-07-04T17:00:38;1.33;;;1.00;;
15183;SDS011;7693;49.266;7.104;2022-07-04T17:03:04;0.90;;;0.90;;
15183;SDS011;7693;49.266;7.104;2022-07-04T17:05:31;2.25;;;0.93;;
15183;SDS011;7693;49.266;7.104;2022-07-04T17:07:57;2.35;;;1.00;;
15183;SDS011;7693;49.266;7.104;2022-07-04T17:10:23;2.50;;;1.00;;
15183;SDS011;7693;49.266;7.104;2022-07-04T17:12:49;1.02;;;1.00;;
15183;SDS011;7693;49.266;7.104;2022-07-04T17:15:14;1.85;;;1.15;;
15183;SDS011;7693;49.266;7.104;2022-07-04T17:17:40;3.33;;;1.13;;
15183;SDS011;7693;49.266;7.104;2022-07-04T17:20:06;1.40;;;1.10;;
15183;SDS011;7693;49.266;7.104;2022-07-04T17:22:32;3.22;;;1.67;;
15183;SDS011;7693;49.266;7.104;2022-07-04T17:24:58;4.60;;;1.10;;
15183;SDS011;7693;49.266;7.104;2022-07-04T17:27:24;1.52;;;1.00;;
15183;SDS011;7693;49.266;7.104;2022-07-04T17:29:49;3.65;;;1.17;;
15183;SDS011;7693;49.266;7.104;2022-07-04T17:32:15;1.00;;;1.00;;
15183;SDS011;7693;49.266;7.104;2022-07-04T17:34:40;5.47;;;1.30;;
15183;SDS011;7693;49.266;7.104;2022-07-04T17:37:06;1.30;;;1.20;;
15183;SDS011;7693;49.266;7.104;2022-07-04T17:39:33;2.55;;;1.10;;
15183;SDS011;7693;49.266;7.104;2022-07-04T17:41:58;1.58;;;1.30;;
15183;SDS011;7693;49.266;7.104;2022-07-04T17:44:24;1.83;;;1.73;;
15183;SDS011;7693;49.266;7.104;2022-07-04T17:46:52;3.75;;;2.17;;
15183;SDS011;7693;49.266;7.104;2022-07-04T17:49:18;1.23;;;1.00;;
15183;SDS011;7693;49.266;7.104;2022-07-04T17:51:44;1.10;;;1.10;;
15183;SDS011;7693;49.266;7.104;2022-07-04T17:54:10;5.05;;;1.02;;
15183;SDS011;7693;49.266;7.104;2022-07-04T17:56:38;1.98;;;1.10;;
15183;SDS011;7693;49.266;7.104;2022-07-04T17:59:04;2.10;;;1.13;;
15183;SDS011;7693;49.266;7.104;2022-07-04T18:01:30;1.60;;;1.15;;
15183;SDS011;7693;49.266;7.104;2022-07-04T18:03:56;1.42;;;1.33;;
15183;SDS011;7693;49.266;7.104;2022-07-04T18:06:23;3.22;;;1.30;;
15183;SDS011;7693;49.266;7.104;2022-07-04T18:08:50;2.55;;;1.10;;
15183;SDS011;7693;49.266;7.104;2022-07-04T18:11:16;3.38;;;1.15;;
15183;SDS011;7693;49.266;7.104;2022-07-04T18:13:43;3.85;;;3.50;;
15183;SDS011;7693;49.266;7.104;2022-07-04T18:16:09;5.85;;;3.55;;
15183;SDS011;7693;49.266;7.104;2022-07-04T18:18:34;1.45;;;1.42;;
15183;SDS011;7693;49.266;7.104;2022-07-04T18:21:01;2.55;;;1.85;;
15183;SDS011;7693;49.266;7.104;2022-07-04T18:23:27;5.45;;;4.68;;
15183;SDS011;7693;49.266;7.104;2022-07-04T18:25:52;5.28;;;2.85;;
15183;SDS011;7693;49.266;7.104;2022-07-04T18:28:18;2.85;;;1.10;;
15183;SDS011;7693;49.266;7.104;2022-07-04T18:30:45;1.30;;;1.08;;
15183;SDS011;7693;49.266;7.104;2022-07-04T18:33:10;1.20;;;0.85;;
15183;SDS011;7693;49.266;7.104;2022-07-04T18:35:36;1.52;;;1.05;;
15183;SDS011;7693;49.266;7.104;2022-07-04T18:38:02;1.02;;;1.02;;
15183;SDS011;7693;49.266;7.104;2022-07-04T18:40:28;1.90;;;1.70;;
15183;SDS011;7693;49.266;7.104;2022-07-04T18:43:12;1.65;;;1.10;;
15183;SDS011;7693;49.266;7.104;2022-07-04T18:45:57;0.88;;;0.85;;
15183;SDS011;7693;49.266;7.104;2022-07-04T18:48:24;1.92;;;1.27;;
15183;SDS011;7693;49.266;7.104;2022-07-04T18:50:51;1.33;;;1.20;;
15183;SDS011;7693;49.266;7.104;2022-07-04T18:53:17;4.65;;;1.42;;
15183;SDS011;7693;49.266;7.104;2022-07-04T18:55:44;0.95;;;0.95;;
15183;SDS011;7693;49.266;7.104;2022-07-04T18:58:10;1.17;;;1.08;;
15183;SDS011;7693;49.266;7.104;2022-07-04T19:00:36;7.70;;;1.30;;
15183;SDS011;7693;49.266;7.104;2022-07-04T19:03:02;1.02;;;0.88;;
15183;SDS011;7693;49.266;7.104;2022-07-04T19:05:29;3.42;;;2.35;;
15183;SDS011;7693;49.266;7.104;2022-07-04T19:07:55;1.33;;;1.20;;
15183;SDS011;7693;49.266;7.104;2022-07-04T19:10:22;2.28;;;1.10;;
15183;SDS011;7693;49.266;7.104;2022-07-04T19:12:48;2.47;;;1.17;;
15183;SDS011;7693;49.266;7.104;2022-07-04T19:15:13;1.60;;;1.00;;
15183;SDS011;7693;49.266;7.104;2022-07-04T19:17:39;1.02;;;1.00;;
15183;SDS011;7693;49.266;7.104;2022-07-04T19:20:06;1.50;;;1.20;;
15183;SDS011;7693;49.266;7.104;2022-07-04T19:22:33;0.93;;;0.93;;
15183;SDS011;7693;49.266;7.104;2022-07-04T19:24:59;4.65;;;1.15;;
15183;SDS011;7693;49.266;7.104;2022-07-04T19:27:26;0.98;;;0.98;;
15183;SDS011;7693;49.266;7.104;2022-07-04T19:29:52;2.45;;;0.90;;
15183;SDS011;7693;49.266;7.104;2022-07-04T19:32:18;2.22;;;1.00;;
15183;SDS011;7693;49.266;7.104;2022-07-04T19:34:45;1.10;;;1.00;;
15183;SDS011;7693;49.266;7.104;2022-07-04T19:37:14;2.17;;;1.13;;
15183;SDS011;7693;49.266;7.104;2022-07-04T19:39:40;2.25;;;1.02;;
15183;SDS011;7693;49.266;7.104;2022-07-04T19:42:07;1.27;;;1.15;;
15183;SDS011;7693;49.266;7.104;2022-07-04T19:44:33;1.33;;;1.25;;
15183;SDS011;7693;49.266;7.104;2022-07-04T19:46:58;1.88;;;1.08;;
15183;SDS011;7693;49.266;7.104;2022-07-04T19:49:24;2.13;;;1.40;;
15183;SDS011;7693;49.266;7.104;2022-07-04T19:51:53;1.42;;;1.23;;
15183;SDS011;7693;49.266;7.104;2022-07-04T19:54:37;3.50;;;1.33;;
15183;SDS011;7693;49.266;7.104;2022-07-04T19:57:03;2.30;;;1.05;;
15183;SDS011;7693;49.266;7.104;2022-07-04T19:59:29;0.98;;;0.98;;
15183;SDS011;7693;49.266;7.104;2022-07-04T20:01:54;2.35;;;1.50;;
15183;SDS011;7693;49.266;7.104;2022-07-04T20:04:21;1.77;;;1.20;;
15183;SDS011;7693;49.266;7.104;2022-07-04T20:06:47;1.30;;;1.20;;
15183;SDS011;7693;49.266;7.104;2022-07-04T20:09:13;1.40;;;1.30;;
15183;SDS011;7693;49.266;7.104;2022-07-04T20:11:39;1.25;;;1.25;;
15183;SDS011;7693;49.266;7.104;2022-07-04T20:14:04;1.33;;;1.30;;
15183;SDS011;7693;49.266;7.104;2022-07-04T20:16:30;1.75;;;1.10;;
15183;SDS011;7693;49.266;7.104;2022-07-04T20:18:59;3.08;;;1.20;;
15183;SDS011;7693;49.266;7.104;2022-07-04T20:21:26;2.60;;;1.13;;
15183;SDS011;7693;49.266;7.104;2022-07-04T20:23:51;3.60;;;1.20;;
15183;SDS011;7693;49.266;7.104;2022-07-04T20:26:17;1.13;;;1.02;;
15183;SDS011;7693;49.266;7.104;2022-07-04T20:28:43;1.25;;;1.10;;
15183;SDS011;7693;49.266;7.104;2022-07-04T20:31:09;1.40;;;1.25;;
15183;SDS011;7693;49.266;7.104;2022-07-04T20:33:35;1.00;;;1.00;;
15183;SDS011;7693;49.266;7.104;2022-07-04T20:36:01;2.03;;;1.17;;
15183;SDS011;7693;49.266;7.104;2022-07-04T20:38:26;1.50;;;1.17;;
15183;SDS011;7693;49.266;7.104;2022-07-04T20:40:52;1.20;;;1.10;;
15183;SDS011;7693;49.266;7.104;2022-07-04T20:43:17;3.60;;;1.45;;
15183;SDS011;7693;49.266;7.104;2022-07-04T20:45:43;2.15;;;1.10;;
15183;SDS011;7693;49.266;7.104;2022-07-04T20:48:09;2.17;;;1.08;;
15183;SDS011;7693;49.266;7.104;2022-07-04T20:50:35;1.77;;;1.45;;
15183;SDS011;7693;49.266;7.104;2022-07-04T20:53:01;1.30;;;1.30;;
15183;SDS011;7693;49.266;7.104;2022-07-04T20:55:27;1.67;;;1.20;;